sensor_id;sensor_type;location;lat;lon;timestamp;pressure;altitude;pressure_sealevel;temperature;humidity
11648;BME280;5880;52.342;9.662;2024-01-25T00:01:21;101612.22;;;12.79;53.51
11648;BME280;5880;52.342;9.662;2024-01-25T00:03:47;101617.91;;;12.77;53.75
11648;BME280;5880;52.342;9.662;2024-01-25T00:06:13;101618.75;;;12.78;53.84
11648;BME280;5880;52.342;9.662;2024-01-25T00:08:39;101616.88;;;12.78;53.52
11648;BME280;5880;52.342;9.662;2024-01-25T00:11:04;101614.13;;;12.78;53.73
11648;BME280;5880;52.342;9.662;2024-01-25T00:13:30;101607.78;;;12.78;53.54
11648;BME280;5880;52.342;9.662;2024-01-25T00:15:57;101600.47;;;12.72;53.50
11648;BME280;5880;52.342;9.662;2024-01-25T00:18:23;101612.88;;;12.74;53.54
11648;BME280;5880;52.342;9.662;2024-01-25T00:20:48;101608.22;;;12.75;53.47
11648;BME280;5880;52.342;9.662;2024-01-25T00:23:14;101622.41;;;12.72;53.65
11648;BME280;5880;52.342;9.662;2024-01-25T00:25:40;101612.94;;;12.67;53.70
11648;BME280;5880;52.342;9.662;2024-01-25T00:28:06;101627.88;;;12.72;53.67
11648;BME280;5880;52.342;9.662;2024-01-25T00:30:31;101622.81;;;12.68;53.60
11648;BME280;5880;52.342;9.662;2024-01-25T00:32:57;101619.03;;;12.70;53.59
11648;BME280;5880;52.342;9.662;2024-01-25T00:35:24;101622.41;;;12.72;53.69
11648;BME280;5880;52.342;9.662;2024-01-25T00:37:51;101615.22;;;12.71;53.74
11648;BME280;5880;52.342;9.662;2024-01-25T00:40:17;101632.75;;;12.70;53.68
11648;BME280;5880;52.342;9.662;2024-01-25T00:42:46;101624.94;;;12.66;53.63
11648;BME280;5880;52.342;9.662;2024-01-25T00:45:23;101621.63;;;12.64;53.52
11648;BME280;5880;52.342;9.662;2024-01-25T00:47:50;101624.34;;;12.64;53.69
11648;BME280;5880;52.342;9.662;2024-01-25T00:50:16;101637.44;;;12.62;53.86
11648;BME280;5880;52.342;9.662;2024-01-25T00:52:44;101636.63;;;12.62;53.67
11648;BME280;5880;52.342;9.662;2024-01-25T00:55:11;101637.66;;;12.61;53.63
11648;BME280;5880;52.342;9.662;2024-01-25T00:57:37;101628.59;;;12.60;53.78
11648;BME280;5880;52.342;9.662;2024-01-25T01:00:03;101633.00;;;12.61;53.57
11648;BME280;5880;52.342;9.662;2024-01-25T01:02:39;101639.13;;;12.63;53.80
11648;BME280;5880;52.342;9.662;2024-01-25T01:05:06;101650.53;;;12.60;53.53
11648;BME280;5880;52.342;9.662;2024-01-25T01:07:32;101650.75;;;12.59;53.83
11648;BME280;5880;52.342;9.662;2024-01-25T01:09:58;101653.28;;;12.60;53.61
11648;BME280;5880;52.342;9.662;2024-01-25T01:12:24;101652.66;;;12.58;53.69
11648;BME280;5880;52.342;9.662;2024-01-25T01:14:49;101649.69;;;12.60;53.69
11648;BME280;5880;52.342;9.662;2024-01-25T01:17:15;101654.31;;;12.59;53.60
11648;BME280;5880;52.342;9.662;2024-01-25T01:19:44;101660.69;;;12.60;53.74
11648;BME280;5880;52.342;9.662;2024-01-25T01:22:09;101656.06;;;12.54;53.71
11648;BME280;5880;52.342;9.662;2024-01-25T01:24:35;101650.13;;;12.57;53.53
11648;BME280;5880;52.342;9.662;2024-01-25T01:27:01;101638.31;;;12.56;53.66
11648;BME280;5880;52.342;9.662;2024-01-25T01:29:26;101643.19;;;12.54;53.74
11648;BME280;5880;52.342;9.662;2024-01-25T01:31:52;101636.25;;;12.52;53.65
11648;BME280;5880;52.342;9.662;2024-01-25T01:34:18;101652.06;;;12.50;53.70
11648;BME280;5880;52.342;9.662;2024-01-25T01:36:44;101639.88;;;12.45;53.63
11648;BME280;5880;52.342;9.662;2024-01-25T01:39:10;101633.53;;;12.45;53.71
11648;BME280;5880;52.342;9.662;2024-01-25T01:41:36;101647.50;;;12.43;53.76
11648;BME280;5880;52.342;9.662;2024-01-25T01:44:01;101650.66;;;12.40;53.71
11648;BME280;5880;52.342;9.662;2024-01-25T01:46:33;101649.59;;;12.41;53.72
11648;BME280;5880;52.342;9.662;2024-01-25T01:49:01;101634.63;;;12.37;53.55
11648;BME280;5880;52.342;9.662;2024-01-25T01:51:30;101632.78;;;12.31;53.57
11648;BME280;5880;52.342;9.662;2024-01-25T01:53:56;101645.44;;;12.32;53.67
11648;BME280;5880;52.342;9.662;2024-01-25T01:56:27;101642.06;;;12.30;53.48
11648;BME280;5880;52.342;9.662;2024-01-25T01:58:57;101650.72;;;12.27;53.76
11648;BME280;5880;52.342;9.662;2024-01-25T02:01:25;101648.41;;;12.24;53.82
11648;BME280;5880;52.342;9.662;2024-01-25T02:03:51;101646.75;;;12.23;53.81
11648;BME280;5880;52.342;9.662;2024-01-25T02:06:17;101655.19;;;12.21;53.80
11648;BME280;5880;52.342;9.662;2024-01-25T02:08:43;101650.97;;;12.19;53.76
11648;BME280;5880;52.342;9.662;2024-01-25T02:11:14;101644.88;;;12.17;53.77
11648;BME280;5880;52.342;9.662;2024-01-25T02:13:40;101663.66;;;12.13;53.76
11648;BME280;5880;52.342;9.662;2024-01-25T02:16:07;101669.34;;;12.12;53.92
11648;BME280;5880;52.342;9.662;2024-01-25T02:18:37;101672.28;;;12.10;54.07
11648;BME280;5880;52.342;9.662;2024-01-25T02:21:03;101683.88;;;12.12;54.20
11648;BME280;5880;52.342;9.662;2024-01-25T02:23:29;101675.91;;;12.11;54.10
11648;BME280;5880;52.342;9.662;2024-01-25T02:25:55;101677.38;;;12.07;54.20
11648;BME280;5880;52.342;9.662;2024-01-25T02:28:21;101683.25;;;12.10;53.94
11648;BME280;5880;52.342;9.662;2024-01-25T02:30:46;101686.63;;;12.12;54.28
11648;BME280;5880;52.342;9.662;2024-01-25T02:33:12;101685.59;;;12.13;54.26
11648;BME280;5880;52.342;9.662;2024-01-25T02:35:38;101690.00;;;12.14;54.27
11648;BME280;5880;52.342;9.662;2024-01-25T02:38:04;101687.88;;;12.16;54.23
11648;BME280;5880;52.342;9.662;2024-01-25T02:40:29;101687.44;;;12.19;54.01
11648;BME280;5880;52.342;9.662;2024-01-25T02:42:55;101693.16;;;12.18;53.98
11648;BME280;5880;52.342;9.662;2024-01-25T02:45:24;101691.88;;;12.20;54.08
11648;BME280;5880;52.342;9.662;2024-01-25T02:47:49;101691.06;;;12.13;54.13
11648;BME280;5880;52.342;9.662;2024-01-25T02:50:15;101697.78;;;12.17;53.97
11648;BME280;5880;52.342;9.662;2024-01-25T02:52:41;101700.75;;;12.16;53.93
11648;BME280;5880;52.342;9.662;2024-01-25T02:55:07;101699.03;;;12.15;54.15
11648;BME280;5880;52.342;9.662;2024-01-25T02:57:33;101702.88;;;12.14;53.92
11648;BME280;5880;52.342;9.662;2024-01-25T02:59:59;101707.28;;;12.15;54.30
11648;BME280;5880;52.342;9.662;2024-01-25T03:02:25;101713.38;;;12.17;54.20
11648;BME280;5880;52.342;9.662;2024-01-25T03:04:51;101722.22;;;12.19;54.05
11648;BME280;5880;52.342;9.662;2024-01-25T03:07:16;101712.34;;;12.18;53.82
11648;BME280;5880;52.342;9.662;2024-01-25T03:09:42;101716.56;;;12.14;53.88
11648;BME280;5880;52.342;9.662;2024-01-25T03:12:08;101711.91;;;12.14;53.80
11648;BME280;5880;52.342;9.662;2024-01-25T03:14:33;101714.91;;;12.13;53.91
11648;BME280;5880;52.342;9.662;2024-01-25T03:16:59;101720.59;;;12.11;54.12
11648;BME280;5880;52.342;9.662;2024-01-25T03:19:27;101725.44;;;12.09;53.77
11648;BME280;5880;52.342;9.662;2024-01-25T03:21:53;101730.28;;;12.07;54.13
11648;BME280;5880;52.342;9.662;2024-01-25T03:24:20;101734.09;;;12.06;54.12
11648;BME280;5880;52.342;9.662;2024-01-25T03:26:46;101733.47;;;12.04;54.10
11648;BME280;5880;52.342;9.662;2024-01-25T03:29:12;101731.75;;;12.03;53.97
11648;BME280;5880;52.342;9.662;2024-01-25T03:31:37;101732.19;;;12.00;53.84
11648;BME280;5880;52.342;9.662;2024-01-25T03:34:04;101746.97;;;11.99;54.18
11648;BME280;5880;52.342;9.662;2024-01-25T03:36:30;101745.28;;;11.98;53.96
11648;BME280;5880;52.342;9.662;2024-01-25T03:38:56;101750.75;;;11.98;54.09
11648;BME280;5880;52.342;9.662;2024-01-25T03:41:22;101749.91;;;11.97;54.02
11648;BME280;5880;52.342;9.662;2024-01-25T03:43:49;101747.38;;;11.96;53.96
11648;BME280;5880;52.342;9.662;2024-01-25T03:46:15;101753.28;;;11.93;53.92
11648;BME280;5880;52.342;9.662;2024-01-25T03:48:41;101759.41;;;11.88;53.94
11648;BME280;5880;52.342;9.662;2024-01-25T03:51:07;101772.91;;;11.90;53.89
11648;BME280;5880;52.342;9.662;2024-01-25T03:53:33;101764.44;;;11.84;54.20
11648;BME280;5880;52.342;9.662;2024-01-25T03:55:58;101767.63;;;11.88;53.93
11648;BME280;5880;52.342;9.662;2024-01-25T03:58:24;101767.63;;;11.88;54.25
11648;BME280;5880;52.342;9.662;2024-01-25T04:00:50;101761.69;;;11.84;54.03
11648;BME280;5880;52.342;9.662;2024-01-25T04:03:15;101757.91;;;11.79;54.30
11648;BME280;5880;52.342;9.662;2024-01-25T04:05:41;101757.50;;;11.82;54.38
11648;BME280;5880;52.342;9.662;2024-01-25T04:08:07;101750.13;;;11.82;54.11
11648;BME280;5880;52.342;9.662;2024-01-25T04:10:34;101755.63;;;11.82;54.16
11648;BME280;5880;52.342;9.662;2024-01-25T04:13:00;101758.75;;;11.79;54.18
11648;BME280;5880;52.342;9.662;2024-01-25T04:15:26;101740.66;;;11.78;54.43
11648;BME280;5880;52.342;9.662;2024-01-25T04:17:52;101746.97;;;11.79;54.46
11648;BME280;5880;52.342;9.662;2024-01-25T04:20:19;101749.91;;;11.77;54.20
11648;BME280;5880;52.342;9.662;2024-01-25T04:22:44;101743.81;;;11.75;54.24
11648;BME280;5880;52.342;9.662;2024-01-25T04:25:11;101755.19;;;11.79;54.19
11648;BME280;5880;52.342;9.662;2024-01-25T04:27:39;101760.66;;;11.79;54.50
11648;BME280;5880;52.342;9.662;2024-01-25T04:30:07;101745.94;;;11.80;54.18
11648;BME280;5880;52.342;9.662;2024-01-25T04:32:33;101757.91;;;11.79;54.27
11648;BME280;5880;52.342;9.662;2024-01-25T04:34:59;101767.41;;;11.76;54.43
11648;BME280;5880;52.342;9.662;2024-01-25T04:37:25;101743.19;;;11.73;54.36
11648;BME280;5880;52.342;9.662;2024-01-25T04:39:50;101763.19;;;11.74;54.46
11648;BME280;5880;52.342;9.662;2024-01-25T04:42:16;101765.31;;;11.72;54.32
11648;BME280;5880;52.342;9.662;2024-01-25T04:44:42;101775.44;;;11.71;54.14
11648;BME280;5880;52.342;9.662;2024-01-25T04:47:09;101774.59;;;11.71;54.37
11648;BME280;5880;52.342;9.662;2024-01-25T04:49:36;101780.28;;;11.69;54.41
11648;BME280;5880;52.342;9.662;2024-01-25T04:52:02;101772.25;;;11.68;54.36
11648;BME280;5880;52.342;9.662;2024-01-25T04:54:28;101788.06;;;11.66;54.12
11648;BME280;5880;52.342;9.662;2024-01-25T04:56:53;101785.75;;;11.62;54.23
11648;BME280;5880;52.342;9.662;2024-01-25T04:59:20;101793.13;;;11.62;54.21
11648;BME280;5880;52.342;9.662;2024-01-25T05:01:46;101804.28;;;11.60;54.26
11648;BME280;5880;52.342;9.662;2024-01-25T05:04:11;101806.19;;;11.60;54.32
11648;BME280;5880;52.342;9.662;2024-01-25T05:06:37;101807.03;;;11.60;54.39
11648;BME280;5880;52.342;9.662;2024-01-25T05:09:03;101818.59;;;11.62;54.40
11648;BME280;5880;52.342;9.662;2024-01-25T05:11:28;101817.13;;;11.60;54.47
11648;BME280;5880;52.342;9.662;2024-01-25T05:13:54;101820.72;;;11.60;54.25
11648;BME280;5880;52.342;9.662;2024-01-25T05:16:20;101824.28;;;11.61;54.54
11648;BME280;5880;52.342;9.662;2024-01-25T05:18:45;101822.63;;;11.60;54.64
11648;BME280;5880;52.342;9.662;2024-01-25T05:21:11;101829.56;;;11.62;54.50
11648;BME280;5880;52.342;9.662;2024-01-25T05:23:37;101829.16;;;11.59;54.49
11648;BME280;5880;52.342;9.662;2024-01-25T05:26:02;101840.50;;;11.62;54.61
11648;BME280;5880;52.342;9.662;2024-01-25T05:28:28;101843.25;;;11.62;54.66
11648;BME280;5880;52.342;9.662;2024-01-25T05:30:54;101845.16;;;11.62;54.32
11648;BME280;5880;52.342;9.662;2024-01-25T05:33:19;101844.97;;;11.64;54.61
11648;BME280;5880;52.342;9.662;2024-01-25T05:35:45;101846.63;;;11.65;54.36
11648;BME280;5880;52.342;9.662;2024-01-25T05:38:10;101849.38;;;11.65;54.31
11648;BME280;5880;52.342;9.662;2024-01-25T05:40:36;101849.56;;;11.63;54.47
11648;BME280;5880;52.342;9.662;2024-01-25T05:43:02;101847.06;;;11.61;54.61
11648;BME280;5880;52.342;9.662;2024-01-25T05:45:28;101843.88;;;11.58;54.53
11648;BME280;5880;52.342;9.662;2024-01-25T05:47:54;101848.94;;;11.61;54.24
11648;BME280;5880;52.342;9.662;2024-01-25T05:50:19;101854.41;;;11.61;54.49
11648;BME280;5880;52.342;9.662;2024-01-25T05:52:45;101856.53;;;11.59;54.11
11648;BME280;5880;52.342;9.662;2024-01-25T05:55:11;101866.63;;;11.58;54.20
11648;BME280;5880;52.342;9.662;2024-01-25T05:57:37;101871.25;;;11.58;54.04
11648;BME280;5880;52.342;9.662;2024-01-25T06:00:04;101875.06;;;11.57;54.21
11648;BME280;5880;52.342;9.662;2024-01-25T06:02:31;101877.16;;;11.55;54.00
11648;BME280;5880;52.342;9.662;2024-01-25T06:04:56;101871.69;;;11.55;54.01
11648;BME280;5880;52.342;9.662;2024-01-25T06:07:24;101868.50;;;11.51;54.20
11648;BME280;5880;52.342;9.662;2024-01-25T06:09:50;101877.38;;;11.53;54.34
11648;BME280;5880;52.342;9.662;2024-01-25T06:12:16;101876.97;;;11.50;54.12
11648;BME280;5880;52.342;9.662;2024-01-25T06:14:42;101883.69;;;11.47;54.42
11648;BME280;5880;52.342;9.662;2024-01-25T06:17:07;101882.00;;;11.46;54.32
11648;BME280;5880;52.342;9.662;2024-01-25T06:19:33;101887.06;;;11.43;54.43
11648;BME280;5880;52.342;9.662;2024-01-25T06:22:00;101888.72;;;11.44;54.43
11648;BME280;5880;52.342;9.662;2024-01-25T06:24:26;101897.78;;;11.44;54.33
11648;BME280;5880;52.342;9.662;2024-01-25T06:26:53;101898.00;;;11.43;54.09
11648;BME280;5880;52.342;9.662;2024-01-25T06:29:18;101902.63;;;11.42;54.36
11648;BME280;5880;52.342;9.662;2024-01-25T06:31:45;101910.00;;;11.41;54.33
11648;BME280;5880;52.342;9.662;2024-01-25T06:34:11;101904.72;;;11.40;54.23
11648;BME280;5880;52.342;9.662;2024-01-25T06:36:37;101901.97;;;11.40;54.31
11648;BME280;5880;52.342;9.662;2024-01-25T06:39:03;101897.34;;;11.34;54.29
11648;BME280;5880;52.342;9.662;2024-01-25T06:41:32;101910.41;;;11.38;54.34
11648;BME280;5880;52.342;9.662;2024-01-25T06:43:59;101909.78;;;11.36;54.55
11648;BME280;5880;52.342;9.662;2024-01-25T06:46:25;101913.53;;;11.35;54.46
11648;BME280;5880;52.342;9.662;2024-01-25T06:48:51;101914.59;;;11.34;54.19
11648;BME280;5880;52.342;9.662;2024-01-25T06:51:17;101916.06;;;11.30;54.38
11648;BME280;5880;52.342;9.662;2024-01-25T06:53:43;101931.88;;;11.35;54.28
11648;BME280;5880;52.342;9.662;2024-01-25T06:56:08;101935.44;;;11.35;54.28
11648;BME280;5880;52.342;9.662;2024-01-25T06:58:34;101940.06;;;11.35;54.35
11648;BME280;5880;52.342;9.662;2024-01-25T07:01:00;101936.09;;;11.31;54.18
11648;BME280;5880;52.342;9.662;2024-01-25T07:03:26;101944.06;;;11.32;54.59
11648;BME280;5880;52.342;9.662;2024-01-25T07:05:51;101948.72;;;11.32;54.60
11648;BME280;5880;52.342;9.662;2024-01-25T07:08:17;101948.47;;;11.27;54.75
11648;BME280;5880;52.342;9.662;2024-01-25T07:10:44;101955.25;;;11.31;54.54
11648;BME280;5880;52.342;9.662;2024-01-25T07:13:10;101948.06;;;11.30;54.43
11648;BME280;5880;52.342;9.662;2024-01-25T07:15:36;101960.50;;;11.32;54.80
11648;BME280;5880;52.342;9.662;2024-01-25T07:18:02;101959.66;;;11.32;54.71
11648;BME280;5880;52.342;9.662;2024-01-25T07:20:27;101954.38;;;11.30;54.43
11648;BME280;5880;52.342;9.662;2024-01-25T07:22:53;101956.91;;;11.32;54.70
11648;BME280;5880;52.342;9.662;2024-01-25T07:25:19;101954.00;;;11.33;54.73
11648;BME280;5880;52.342;9.662;2024-01-25T07:27:45;101952.28;;;11.32;54.53
11648;BME280;5880;52.342;9.662;2024-01-25T07:30:13;101951.63;;;11.30;54.66
11648;BME280;5880;52.342;9.662;2024-01-25T07:32:39;101966.19;;;11.31;54.80
11648;BME280;5880;52.342;9.662;2024-01-25T07:35:08;101961.94;;;11.28;54.86
11648;BME280;5880;52.342;9.662;2024-01-25T07:37:38;101972.69;;;11.30;54.58
11648;BME280;5880;52.342;9.662;2024-01-25T07:40:05;101965.56;;;11.29;54.72
11648;BME280;5880;52.342;9.662;2024-01-25T07:42:31;101969.53;;;11.33;54.79
11648;BME280;5880;52.342;9.662;2024-01-25T07:44:57;101975.88;;;11.33;54.70
11648;BME280;5880;52.342;9.662;2024-01-25T07:47:23;101981.56;;;11.32;54.87
11648;BME280;5880;52.342;9.662;2024-01-25T07:49:48;101986.19;;;11.31;54.67
11648;BME280;5880;52.342;9.662;2024-01-25T07:52:14;101986.81;;;11.27;55.00
11648;BME280;5880;52.342;9.662;2024-01-25T07:54:40;101985.97;;;11.26;54.89
11648;BME280;5880;52.342;9.662;2024-01-25T07:57:05;102002.63;;;11.31;54.95
11648;BME280;5880;52.342;9.662;2024-01-25T07:59:31;101996.31;;;11.31;55.10
11648;BME280;5880;52.342;9.662;2024-01-25T08:01:57;101999.88;;;11.31;55.11
11648;BME280;5880;52.342;9.662;2024-01-25T08:04:22;101998.81;;;11.32;54.72
11648;BME280;5880;52.342;9.662;2024-01-25T08:06:48;102002.41;;;11.33;55.06
11648;BME280;5880;52.342;9.662;2024-01-25T08:09:14;102010.59;;;11.33;54.89
11648;BME280;5880;52.342;9.662;2024-01-25T08:11:39;102014.63;;;11.37;54.77
11648;BME280;5880;52.342;9.662;2024-01-25T08:14:05;102012.97;;;11.36;54.81
11648;BME280;5880;52.342;9.662;2024-01-25T08:16:31;102018.22;;;11.37;54.97
11648;BME280;5880;52.342;9.662;2024-01-25T08:18:57;102014.81;;;11.35;55.13
11648;BME280;5880;52.342;9.662;2024-01-25T08:21:24;102014.00;;;11.35;54.89
11648;BME280;5880;52.342;9.662;2024-01-25T08:23:50;102012.72;;;11.31;55.11
11648;BME280;5880;52.342;9.662;2024-01-25T08:26:15;102021.38;;;11.34;54.98
11648;BME280;5880;52.342;9.662;2024-01-25T08:28:42;102021.16;;;11.36;55.25
11648;BME280;5880;52.342;9.662;2024-01-25T08:31:10;102019.47;;;11.35;54.99
11648;BME280;5880;52.342;9.662;2024-01-25T08:33:36;102016.53;;;11.36;55.01
11648;BME280;5880;52.342;9.662;2024-01-25T08:36:02;102021.81;;;11.38;55.20
11648;BME280;5880;52.342;9.662;2024-01-25T08:38:28;102023.50;;;11.39;55.13
11648;BME280;5880;52.342;9.662;2024-01-25T08:40:53;102031.72;;;11.39;55.21
11648;BME280;5880;52.342;9.662;2024-01-25T08:43:19;102034.03;;;11.42;55.05
11648;BME280;5880;52.342;9.662;2024-01-25T08:45:45;102034.66;;;11.44;55.21
11648;BME280;5880;52.342;9.662;2024-01-25T08:48:11;102036.56;;;11.44;55.30
11648;BME280;5880;52.342;9.662;2024-01-25T08:50:36;102033.63;;;11.45;55.06
11648;BME280;5880;52.342;9.662;2024-01-25T08:53:02;102027.91;;;11.40;55.13
11648;BME280;5880;52.342;9.662;2024-01-25T08:55:28;102045.44;;;11.46;55.18
11648;BME280;5880;52.342;9.662;2024-01-25T08:57:53;102037.22;;;11.46;55.50
11648;BME280;5880;52.342;9.662;2024-01-25T09:00:19;102041.44;;;11.48;55.20
11648;BME280;5880;52.342;9.662;2024-01-25T09:02:45;102054.94;;;11.50;55.27
11648;BME280;5880;52.342;9.662;2024-01-25T09:05:11;102055.34;;;11.53;55.58
11648;BME280;5880;52.342;9.662;2024-01-25T09:07:37;102048.84;;;11.54;55.48
11648;BME280;5880;52.342;9.662;2024-01-25T09:10:04;102046.94;;;11.55;55.44
11648;BME280;5880;52.342;9.662;2024-01-25T09:12:30;102041.03;;;11.51;55.45
11648;BME280;5880;52.342;9.662;2024-01-25T09:14:56;102042.50;;;11.54;55.29
11648;BME280;5880;52.342;9.662;2024-01-25T09:17:21;102048.84;;;11.54;55.25
11648;BME280;5880;52.342;9.662;2024-01-25T09:19:49;102052.00;;;11.58;55.45
11648;BME280;5880;52.342;9.662;2024-01-25T09:22:15;102057.94;;;11.61;55.34
11648;BME280;5880;52.342;9.662;2024-01-25T09:24:43;102060.44;;;11.63;55.48
11648;BME280;5880;52.342;9.662;2024-01-25T09:27:09;102061.72;;;11.67;55.65
11648;BME280;5880;52.342;9.662;2024-01-25T09:29:35;102069.53;;;11.70;55.38
11648;BME280;5880;52.342;9.662;2024-01-25T09:32:00;102070.41;;;11.71;55.50
11648;BME280;5880;52.342;9.662;2024-01-25T09:34:26;102079.47;;;11.71;55.64
11648;BME280;5880;52.342;9.662;2024-01-25T09:36:52;102081.34;;;11.77;55.23
11648;BME280;5880;52.342;9.662;2024-01-25T09:39:18;102085.59;;;11.80;55.48
11648;BME280;5880;52.342;9.662;2024-01-25T09:41:43;102082.44;;;11.83;55.53
11648;BME280;5880;52.342;9.662;2024-01-25T09:44:09;102082.44;;;11.83;55.13
11648;BME280;5880;52.342;9.662;2024-01-25T09:46:37;102089.84;;;11.82;55.61
11648;BME280;5880;52.342;9.662;2024-01-25T09:49:02;102082.00;;;11.79;55.75
11648;BME280;5880;52.342;9.662;2024-01-25T09:51:37;102087.94;;;11.83;55.21
11648;BME280;5880;52.342;9.662;2024-01-25T09:54:06;102090.66;;;11.83;55.56
11648;BME280;5880;52.342;9.662;2024-01-25T09:56:33;102091.69;;;11.82;55.44
11648;BME280;5880;52.342;9.662;2024-01-25T09:59:00;102087.09;;;11.82;55.64
11648;BME280;5880;52.342;9.662;2024-01-25T10:01:26;102104.38;;;11.83;55.57
11648;BME280;5880;52.342;9.662;2024-01-25T10:03:52;102106.03;;;11.84;55.48
11648;BME280;5880;52.342;9.662;2024-01-25T10:06:18;102112.16;;;11.86;55.62
11648;BME280;5880;52.342;9.662;2024-01-25T10:08:45;102112.84;;;11.88;55.61
11648;BME280;5880;52.342;9.662;2024-01-25T10:11:11;102097.25;;;11.89;55.41
11648;BME280;5880;52.342;9.662;2024-01-25T10:13:48;102099.78;;;11.90;55.59
11648;BME280;5880;52.342;9.662;2024-01-25T10:16:18;102089.47;;;11.92;55.52
11648;BME280;5880;52.342;9.662;2024-01-25T10:18:47;102071.97;;;11.93;55.69
11648;BME280;5880;52.342;9.662;2024-01-25T10:21:14;102088.00;;;11.96;55.68
11648;BME280;5880;52.342;9.662;2024-01-25T10:23:43;102083.16;;;11.98;55.35
11648;BME280;5880;52.342;9.662;2024-01-25T10:26:09;102088.44;;;12.00;55.47
11648;BME280;5880;52.342;9.662;2024-01-25T10:28:35;102089.06;;;12.02;55.68
11648;BME280;5880;52.342;9.662;2024-01-25T10:31:03;102089.72;;;12.04;55.45
11648;BME280;5880;52.342;9.662;2024-01-25T10:33:33;102088.66;;;12.05;55.81
11648;BME280;5880;52.342;9.662;2024-01-25T10:36:03;102085.53;;;12.08;55.77
11648;BME280;5880;52.342;9.662;2024-01-25T10:38:31;102089.09;;;12.09;55.74
11648;BME280;5880;52.342;9.662;2024-01-25T10:41:01;102087.00;;;12.11;55.80
11648;BME280;5880;52.342;9.662;2024-01-25T10:43:27;102095.63;;;12.14;55.66
11648;BME280;5880;52.342;9.662;2024-01-25T10:45:54;102090.38;;;12.13;55.74
11648;BME280;5880;52.342;9.662;2024-01-25T10:48:23;102086.56;;;12.14;55.94
11648;BME280;5880;52.342;9.662;2024-01-25T10:50:49;102097.34;;;12.22;55.77
11648;BME280;5880;52.342;9.662;2024-01-25T10:53:16;102107.91;;;12.25;56.04
11648;BME280;5880;52.342;9.662;2024-01-25T10:55:42;102106.84;;;12.26;55.51
11648;BME280;5880;52.342;9.662;2024-01-25T10:58:09;102109.38;;;12.28;55.50
11648;BME280;5880;52.342;9.662;2024-01-25T11:00:37;102114.66;;;12.29;55.47
11648;BME280;5880;52.342;9.662;2024-01-25T11:03:06;102118.88;;;12.32;55.38
11648;BME280;5880;52.342;9.662;2024-01-25T11:05:32;102111.69;;;12.31;55.65
11648;BME280;5880;52.342;9.662;2024-01-25T11:07:58;102119.72;;;12.32;55.45
11648;BME280;5880;52.342;9.662;2024-01-25T11:10:27;102112.16;;;12.34;55.42
11648;BME280;5880;52.342;9.662;2024-01-25T11:12:59;102113.63;;;12.37;55.34
11648;BME280;5880;52.342;9.662;2024-01-25T11:15:36;102113.41;;;12.38;55.31
11648;BME280;5880;52.342;9.662;2024-01-25T11:18:03;102111.53;;;12.39;55.09
11648;BME280;5880;52.342;9.662;2024-01-25T11:20:33;102108.97;;;12.37;55.14
11648;BME280;5880;52.342;9.662;2024-01-25T11:23:02;102100.72;;;12.31;54.91
11648;BME280;5880;52.342;9.662;2024-01-25T11:25:31;102103.06;;;12.34;55.26
11648;BME280;5880;52.342;9.662;2024-01-25T11:27:58;102115.72;;;12.35;55.22
11648;BME280;5880;52.342;9.662;2024-01-25T11:30:25;102112.16;;;12.34;55.26
11648;BME280;5880;52.342;9.662;2024-01-25T11:32:51;102112.97;;;12.35;55.22
11648;BME280;5880;52.342;9.662;2024-01-25T11:35:17;102106.22;;;12.37;55.34
11648;BME280;5880;52.342;9.662;2024-01-25T11:37:45;102104.78;;;12.41;55.51
11648;BME280;5880;52.342;9.662;2024-01-25T11:40:12;102094.84;;;12.40;55.50
11648;BME280;5880;52.342;9.662;2024-01-25T11:42:40;102097.19;;;12.43;55.28
11648;BME280;5880;52.342;9.662;2024-01-25T11:45:10;102106.25;;;12.44;55.42
11648;BME280;5880;52.342;9.662;2024-01-25T11:47:37;102108.16;;;12.43;55.14
11648;BME280;5880;52.342;9.662;2024-01-25T11:50:05;102105.41;;;12.43;54.97
11648;BME280;5880;52.342;9.662;2024-01-25T11:52:31;102107.28;;;12.43;55.36
11648;BME280;5880;52.342;9.662;2024-01-25T11:55:06;102105.19;;;12.45;55.21
11648;BME280;5880;52.342;9.662;2024-01-25T11:57:36;102106.66;;;12.48;55.24
11648;BME280;5880;52.342;9.662;2024-01-25T12:00:03;102104.78;;;12.48;55.33
11648;BME280;5880;52.342;9.662;2024-01-25T12:02:31;102102.44;;;12.52;55.83
11648;BME280;5880;52.342;9.662;2024-01-25T12:04:57;102103.53;;;12.57;55.61
11648;BME280;5880;52.342;9.662;2024-01-25T12:07:23;102096.53;;;12.61;55.52
11648;BME280;5880;52.342;9.662;2024-01-25T12:10:05;102094.88;;;12.67;55.46
11648;BME280;5880;52.342;9.662;2024-01-25T12:12:31;102097.63;;;12.67;55.37
11648;BME280;5880;52.342;9.662;2024-01-25T12:14:58;102091.69;;;12.70;55.53
11648;BME280;5880;52.342;9.662;2024-01-25T12:17:27;102076.91;;;12.71;55.36
11648;BME280;5880;52.342;9.662;2024-01-25T12:19:57;102086.03;;;12.72;55.18
11648;BME280;5880;52.342;9.662;2024-01-25T12:22:26;102078.63;;;12.72;55.50
11648;BME280;5880;52.342;9.662;2024-01-25T12:24:58;102087.50;;;12.74;55.06
11648;BME280;5880;52.342;9.662;2024-01-25T12:27:26;102086.84;;;12.72;55.30
11648;BME280;5880;52.342;9.662;2024-01-25T12:29:53;102078.63;;;12.72;54.97
11648;BME280;5880;52.342;9.662;2024-01-25T12:32:20;102076.91;;;12.71;55.01
11648;BME280;5880;52.342;9.662;2024-01-25T12:34:55;102080.53;;;12.72;55.40
11648;BME280;5880;52.342;9.662;2024-01-25T12:37:22;102078.81;;;12.71;55.26
11648;BME280;5880;52.342;9.662;2024-01-25T12:39:49;102080.53;;;12.72;55.24
11648;BME280;5880;52.342;9.662;2024-01-25T12:42:15;102075.25;;;12.70;55.24
11648;BME280;5880;52.342;9.662;2024-01-25T12:44:41;102078.81;;;12.71;55.33
11648;BME280;5880;52.342;9.662;2024-01-25T12:47:06;102083.91;;;12.74;55.16
11648;BME280;5880;52.342;9.662;2024-01-25T12:49:33;102076.72;;;12.73;55.13
11648;BME280;5880;52.342;9.662;2024-01-25T12:51:59;102077.34;;;12.75;55.09
11648;BME280;5880;52.342;9.662;2024-01-25T12:54:26;102088.53;;;12.73;55.03
11648;BME280;5880;52.342;9.662;2024-01-25T12:56:52;102090.63;;;12.71;54.94